createdAt,value
2023-03-30T00:01:31.130Z,4.80
2023-03-30T00:03:59.219Z,4.80
2023-03-30T00:06:26.733Z,4.80
2023-03-30T00:08:57.672Z,4.80
2023-03-30T00:11:25.147Z,4.80
2023-03-30T00:13:51.827Z,4.70
2023-03-30T00:16:18.718Z,4.70
2023-03-30T00:18:45.475Z,4.70
2023-03-30T00:21:14.525Z,4.80
2023-03-30T00:23:41.209Z,4.80
2023-03-30T00:26:07.999Z,4.80
2023-03-30T00:28:34.834Z,4.70
2023-03-30T00:31:02.309Z,4.80
2023-03-30T00:33:43.800Z,4.80
2023-03-30T00:36:12.448Z,4.80
2023-03-30T00:38:39.219Z,4.90
2023-03-30T00:41:07.246Z,4.80
2023-03-30T00:43:34.382Z,4.90
2023-03-30T00:46:01.434Z,5.00
2023-03-30T00:48:37.108Z,5.00
2023-03-30T00:51:05.174Z,5.00
2023-03-30T00:53:34.137Z,4.90
2023-03-30T00:56:01.091Z,4.90
2023-03-30T00:58:27.866Z,4.90
2023-03-30T01:00:54.875Z,4.90
2023-03-30T01:03:27.592Z,4.90
2023-03-30T01:05:54.521Z,4.80
2023-03-30T01:08:24.468Z,4.80
2023-03-30T01:10:56.002Z,4.80
2023-03-30T01:13:23.501Z,4.80
2023-03-30T01:16:08.772Z,4.90
2023-03-30T01:18:41.453Z,4.90
2023-03-30T01:21:37.874Z,5.00
2023-03-30T01:24:11.541Z,5.10
2023-03-30T01:26:44.254Z,5.20
2023-03-30T01:29:20.355Z,5.20
2023-03-30T01:31:49.774Z,5.30
2023-03-30T01:34:16.846Z,5.30
2023-03-30T01:36:49.623Z,5.40
2023-03-30T01:39:16.763Z,5.40
2023-03-30T01:41:47.591Z,5.50
2023-03-30T01:44:17.331Z,5.50
2023-03-30T01:46:45.484Z,5.60
2023-03-30T01:49:32.430Z,5.60
2023-03-30T01:52:00.560Z,5.70
2023-03-30T01:54:30.373Z,5.70
2023-03-30T01:57:04.881Z,5.70
2023-03-30T01:59:40.311Z,5.80
2023-03-30T02:02:08.771Z,5.80
2023-03-30T02:04:36.419Z,5.80
2023-03-30T02:07:04.399Z,5.80
2023-03-30T02:09:31.346Z,5.80
2023-03-30T02:11:58.045Z,6.00
2023-03-30T02:14:26.417Z,6.00
2023-03-30T02:16:57.809Z,5.90
2023-03-30T02:19:24.491Z,6.00
2023-03-30T02:21:51.721Z,6.00
2023-03-30T02:24:20.097Z,6.00
2023-03-30T02:26:47.627Z,6.00
2023-03-30T02:29:14.656Z,6.10
2023-03-30T02:31:41.910Z,5.90
2023-03-30T02:34:20.240Z,6.00
2023-03-30T02:37:01.060Z,5.80
2023-03-30T02:39:32.736Z,6.00
2023-03-30T02:42:09.574Z,5.90
2023-03-30T02:44:50.122Z,6.00
2023-03-30T02:47:32.200Z,5.90
2023-03-30T02:50:07.230Z,5.90
2023-03-30T02:52:38.028Z,5.90
2023-03-30T02:55:10.981Z,5.90
2023-03-30T02:57:46.829Z,5.90
2023-03-30T03:00:33.826Z,5.90
2023-03-30T03:03:01.850Z,5.90
2023-03-30T03:05:28.482Z,5.90
2023-03-30T03:07:56.430Z,5.90
2023-03-30T03:10:23.218Z,6.00
2023-03-30T03:12:49.977Z,5.90
2023-03-30T03:15:17.161Z,6.00
2023-03-30T03:17:45.448Z,6.00
2023-03-30T03:20:12.218Z,5.90
2023-03-30T03:22:39.173Z,5.90
2023-03-30T03:25:05.971Z,5.90
2023-03-30T03:27:32.976Z,5.80
2023-03-30T03:29:59.732Z,5.80
2023-03-30T03:32:26.756Z,5.90
2023-03-30T03:34:55.462Z,5.70
2023-03-30T03:37:22.184Z,5.70
2023-03-30T03:39:49.161Z,5.60
2023-03-30T03:42:16.133Z,5.50
2023-03-30T03:44:42.759Z,5.50
2023-03-30T03:47:09.572Z,5.50
2023-03-30T03:49:36.245Z,5.50
2023-03-30T03:52:05.470Z,5.50
2023-03-30T03:54:32.243Z,5.60
2023-03-30T03:56:59.108Z,5.50
2023-03-30T03:59:26.789Z,5.70
2023-03-30T04:01:53.563Z,5.60
2023-03-30T04:04:21.364Z,5.60
2023-03-30T04:06:49.305Z,5.60
2023-03-30T04:09:19.563Z,5.70
2023-03-30T04:11:46.811Z,5.60
2023-03-30T04:14:13.519Z,5.70
2023-03-30T04:16:40.325Z,5.70
2023-03-30T04:19:09.213Z,5.80
2023-03-30T04:21:41.441Z,5.70
2023-03-30T04:24:16.683Z,5.70
2023-03-30T04:26:49.909Z,5.60
2023-03-30T04:29:17.983Z,5.80
2023-03-30T04:31:53.204Z,5.70
2023-03-30T04:34:25.123Z,5.70
2023-03-30T04:36:57.190Z,5.70
2023-03-30T04:39:25.077Z,5.60
2023-03-30T04:41:54.480Z,5.60
2023-03-30T04:44:22.282Z,5.70
2023-03-30T04:46:49.228Z,5.70
2023-03-30T04:49:16.077Z,5.60
2023-03-30T04:51:43.322Z,5.50
2023-03-30T04:54:15.011Z,5.60
2023-03-30T04:56:42.650Z,5.50
2023-03-30T04:59:12.154Z,5.40
2023-03-30T05:01:41.453Z,5.50
2023-03-30T05:04:08.943Z,5.40
2023-03-30T05:06:36.114Z,5.30
2023-03-30T05:09:02.889Z,5.30
2023-03-30T05:11:29.508Z,5.40
2023-03-30T05:13:56.287Z,5.30
2023-03-30T05:16:23.715Z,5.30
2023-03-30T05:18:51.741Z,5.30
2023-03-30T05:21:18.577Z,5.30
2023-03-30T05:23:45.688Z,5.40
2023-03-30T05:26:12.832Z,5.50
2023-03-30T05:28:41.169Z,5.60
2023-03-30T05:31:08.088Z,5.60
2023-03-30T05:33:36.006Z,5.60
2023-03-30T05:36:03.118Z,5.80
2023-03-30T05:38:32.200Z,5.70
2023-03-30T05:41:03.643Z,5.80
2023-03-30T05:43:33.569Z,5.70
2023-03-30T05:46:05.021Z,5.70
2023-03-30T05:48:34.469Z,5.80
2023-03-30T05:51:05.124Z,5.90
2023-03-30T05:53:32.422Z,5.90
2023-03-30T05:56:01.625Z,6.00
2023-03-30T05:58:29.514Z,6.00
2023-03-30T06:00:59.578Z,6.00
2023-03-30T06:03:26.472Z,6.10
2023-03-30T06:05:53.425Z,6.40
2023-03-30T06:08:22.657Z,6.60
2023-03-30T06:11:00.937Z,6.70
2023-03-30T06:13:29.668Z,6.80
2023-03-30T06:15:57.525Z,6.90
2023-03-30T06:18:25.224Z,6.90
2023-03-30T06:20:52.465Z,6.80
2023-03-30T06:31:48.753Z,6.90
2023-03-30T06:34:16.036Z,7.00
2023-03-30T06:36:48.461Z,7.10
2023-03-30T06:39:15.296Z,7.00
2023-03-30T06:41:49.363Z,7.20
2023-03-30T06:44:19.172Z,7.10
2023-03-30T06:46:50.692Z,7.20
2023-03-30T06:49:18.990Z,7.20
2023-03-30T06:51:48.662Z,7.80
2023-03-30T06:54:21.605Z,7.50
2023-03-30T06:56:50.178Z,7.50
2023-03-30T06:59:17.577Z,8.50
2023-03-30T07:01:45.169Z,7.70
2023-03-30T07:04:12.733Z,7.80
2023-03-30T07:06:42.576Z,8.00
2023-03-30T07:09:18.192Z,7.90
2023-03-30T07:11:46.179Z,8.10
2023-03-30T07:14:17.666Z,8.20
2023-03-30T07:19:33.786Z,9.20
2023-03-30T07:22:03.562Z,8.50
2023-03-30T07:24:32.686Z,8.60
2023-03-30T07:27:01.046Z,8.60
2023-03-30T07:29:29.998Z,8.60
2023-03-30T07:31:57.985Z,8.50
2023-03-30T07:34:25.576Z,8.50
2023-03-30T07:36:54.681Z,8.40
2023-03-30T07:39:27.203Z,8.40
2023-03-30T07:41:55.665Z,8.60
2023-03-30T07:44:23.764Z,8.80
2023-03-30T07:49:52.946Z,9.10
2023-03-30T07:55:04.496Z,9.30
2023-03-30T07:57:33.511Z,9.20
2023-03-30T08:00:03.927Z,9.40
2023-03-30T08:02:32.804Z,9.70
2023-03-30T08:05:11.812Z,10.00
2023-03-30T08:07:40.219Z,10.50
2023-03-30T08:10:08.505Z,11.00
2023-03-30T08:12:37.760Z,11.50
2023-03-30T08:17:47.216Z,12.20
2023-03-30T08:20:17.437Z,12.40
2023-03-30T08:22:48.215Z,12.60
2023-03-30T08:25:24.501Z,12.80
2023-03-30T08:27:57.836Z,12.80
2023-03-30T08:30:25.328Z,12.70
2023-03-30T08:32:53.459Z,12.70
2023-03-30T08:35:22.981Z,12.60
2023-03-30T08:38:10.475Z,12.40
2023-03-30T08:43:26.645Z,12.30
2023-03-30T08:45:56.152Z,12.40
2023-03-30T08:48:29.602Z,12.40
2023-03-30T08:50:58.452Z,12.40
2023-03-30T08:53:25.733Z,12.50
2023-03-30T08:55:54.990Z,12.50
2023-03-30T08:58:50.258Z,12.70
2023-03-30T09:01:23.242Z,12.70
2023-03-30T09:04:09.732Z,12.90
2023-03-30T09:06:55.216Z,13.20
2023-03-30T09:09:25.398Z,13.50
2023-03-30T09:11:54.290Z,13.80
2023-03-30T09:14:39.953Z,14.00
2023-03-30T09:17:36.912Z,14.40
2023-03-30T09:20:37.514Z,14.50
2023-03-30T09:23:05.576Z,14.50
2023-03-30T09:25:34.008Z,14.40
2023-03-30T09:28:13.977Z,14.20
2023-03-30T09:30:42.954Z,14.10
2023-03-30T09:33:17.602Z,14.00
2023-03-30T09:35:49.130Z,13.60
2023-03-30T09:38:24.638Z,13.70
2023-03-30T09:41:08.011Z,13.70
2023-03-30T09:43:40.102Z,13.50
2023-03-30T09:46:08.291Z,13.50
2023-03-30T09:48:44.254Z,13.40
2023-03-30T09:51:24.068Z,13.30
2023-03-30T09:54:08.538Z,13.20
2023-03-30T09:56:42.185Z,13.20
2023-03-30T09:59:27.797Z,13.00
2023-03-30T10:02:11.300Z,12.90
2023-03-30T10:04:58.745Z,12.80
2023-03-30T10:08:12.815Z,12.70
2023-03-30T10:13:31.393Z,12.60
2023-03-30T10:16:03.982Z,12.60
2023-03-30T10:18:54.620Z,12.60
2023-03-30T10:21:24.801Z,12.60
2023-03-30T10:24:02.132Z,12.70
2023-03-30T10:26:31.902Z,12.70
2023-03-30T10:29:05.261Z,12.80
2023-03-30T10:31:42.272Z,12.70
2023-03-30T10:34:24.065Z,12.80
2023-03-30T10:39:34.520Z,12.80
2023-03-30T10:42:04.673Z,12.80
2023-03-30T10:44:34.090Z,12.80
2023-03-30T10:47:14.006Z,12.80
2023-03-30T10:50:06.799Z,12.80
2023-03-30T10:52:58.587Z,12.80
2023-03-30T10:58:28.696Z,12.80
2023-03-30T11:01:16.011Z,12.70
2023-03-30T11:03:48.703Z,12.70
2023-03-30T11:06:18.163Z,12.70
2023-03-30T11:08:50.390Z,12.60
2023-03-30T11:11:22.171Z,12.50
2023-03-30T11:13:52.467Z,12.40
2023-03-30T11:16:27.556Z,12.50
2023-03-30T11:19:02.151Z,12.40
2023-03-30T11:24:31.283Z,12.30
2023-03-30T11:27:18.544Z,12.30
2023-03-30T11:30:04.340Z,12.30
2023-03-30T11:32:44.545Z,12.40
2023-03-30T11:35:19.449Z,12.30
2023-03-30T11:38:12.693Z,12.30
2023-03-30T11:43:30.836Z,12.30
2023-03-30T11:46:10.318Z,12.20
2023-03-30T11:49:11.511Z,12.30
2023-03-30T11:51:54.560Z,12.30
2023-03-30T11:55:01.863Z,12.40
2023-03-30T11:57:56.466Z,12.50
2023-03-30T12:00:36.559Z,12.50
2023-03-30T12:03:15.394Z,12.50
2023-03-30T12:05:50.576Z,12.70
2023-03-30T12:08:26.508Z,12.90
2023-03-30T12:11:08.435Z,13.10
2023-03-30T12:13:48.407Z,13.30
2023-03-30T12:16:22.406Z,13.50
2023-03-30T12:19:22.546Z,13.60
2023-03-30T12:21:52.674Z,13.60
2023-03-30T12:24:19.386Z,13.70
2023-03-30T12:27:04.660Z,13.80
2023-03-30T12:32:21.312Z,13.90
2023-03-30T12:34:54.576Z,14.00
2023-03-30T12:37:39.935Z,14.00
2023-03-30T12:40:16.678Z,14.20
2023-03-30T12:42:46.845Z,14.20
2023-03-30T12:45:16.165Z,14.10
2023-03-30T12:48:17.945Z,14.10
2023-03-30T12:51:13.101Z,14.00
2023-03-30T12:54:00.007Z,13.90
2023-03-30T12:56:47.168Z,13.70
2023-03-30T12:59:23.960Z,13.40
2023-03-30T13:01:54.384Z,13.30
2023-03-30T13:04:23.857Z,13.10
2023-03-30T13:07:09.605Z,12.90
2023-03-30T13:09:59.713Z,12.90
2023-03-30T13:12:36.618Z,12.80
2023-03-30T13:15:28.544Z,12.60
2023-03-30T13:17:55.228Z,12.50
2023-03-30T13:20:30.451Z,12.40
2023-03-30T13:23:12.865Z,12.30
2023-03-30T13:25:42.991Z,12.40
2023-03-30T13:28:29.327Z,12.40
2023-03-30T13:30:59.481Z,12.40
2023-03-30T13:33:26.789Z,12.50
2023-03-30T13:35:58.649Z,12.60
2023-03-30T13:38:44.519Z,12.60
2023-03-30T13:41:49.183Z,12.60
2023-03-30T13:44:45.249Z,12.50
2023-03-30T13:47:20.005Z,12.40
2023-03-30T13:49:52.074Z,12.30
2023-03-30T13:52:19.777Z,12.20
2023-03-30T13:57:37.489Z,12.10
2023-03-30T14:00:09.017Z,11.90
2023-03-30T14:02:41.066Z,11.90
2023-03-30T14:05:15.768Z,11.80
2023-03-30T14:07:43.601Z,11.80
2023-03-30T14:10:18.122Z,11.70
2023-03-30T14:12:53.050Z,11.80
2023-03-30T14:15:22.007Z,11.90
2023-03-30T14:17:56.924Z,11.80
2023-03-30T14:20:36.441Z,11.80
2023-03-30T14:23:06.002Z,11.80
2023-03-30T14:25:35.029Z,11.80
2023-03-30T14:28:14.469Z,11.80
2023-03-30T14:30:51.199Z,11.90
2023-03-30T14:33:21.827Z,11.90
2023-03-30T14:36:13.248Z,11.90
2023-03-30T14:38:44.900Z,12.00
2023-03-30T14:41:15.265Z,11.90
2023-03-30T14:43:51.579Z,12.00
2023-03-30T14:46:18.870Z,12.00
2023-03-30T14:48:50.870Z,12.10
2023-03-30T14:51:25.875Z,12.10
2023-03-30T14:53:53.856Z,12.10
2023-03-30T14:59:05.898Z,12.30
2023-03-30T15:01:36.604Z,12.30
2023-03-30T15:04:12.085Z,12.30
2023-03-30T15:07:17.558Z,12.40
2023-03-30T15:09:52.066Z,12.40
2023-03-30T15:12:42.191Z,12.20
2023-03-30T15:15:14.337Z,12.20
2023-03-30T15:17:49.992Z,12.20
2023-03-30T15:20:21.481Z,12.10
2023-03-30T15:22:50.651Z,12.10
2023-03-30T15:25:25.586Z,12.20
2023-03-30T15:27:56.470Z,12.10
2023-03-30T15:30:34.895Z,12.00
2023-03-30T15:33:02.810Z,12.00
2023-03-30T15:35:31.648Z,12.00
2023-03-30T15:37:59.610Z,11.90
2023-03-30T15:40:37.148Z,11.90
2023-03-30T15:43:14.174Z,11.80
2023-03-30T15:45:51.589Z,11.90
2023-03-30T15:48:19.703Z,11.80
2023-03-30T15:50:51.929Z,11.70
2023-03-30T15:53:22.538Z,11.90
2023-03-30T15:55:51.751Z,11.80
2023-03-30T15:58:28.897Z,11.70
2023-03-30T16:00:59.720Z,11.70
2023-03-30T16:03:40.282Z,11.60
2023-03-30T16:06:15.925Z,11.50
2023-03-30T16:08:45.610Z,11.50
2023-03-30T16:11:15.375Z,11.40
2023-03-30T16:13:48.634Z,11.50
2023-03-30T16:16:18.775Z,11.40
2023-03-30T16:18:46.833Z,11.40
2023-03-30T16:21:13.865Z,11.30
2023-03-30T16:23:41.567Z,11.30
2023-03-30T16:26:14.824Z,11.40
2023-03-30T16:28:49.706Z,11.40
2023-03-30T16:31:19.665Z,11.50
2023-03-30T16:33:46.847Z,11.50
2023-03-30T16:36:16.454Z,11.50
2023-03-30T16:38:48.147Z,11.50
2023-03-30T16:46:46.842Z,11.60
2023-03-30T16:49:16.616Z,11.70
2023-03-30T16:51:44.692Z,11.70
2023-03-30T16:56:58.122Z,11.80
2023-03-30T16:59:32.406Z,11.90
2023-03-30T17:02:13.065Z,11.90
2023-03-30T17:07:29.875Z,12.10
2023-03-30T17:09:56.991Z,12.10
2023-03-30T17:12:26.277Z,12.10
2023-03-30T17:14:53.232Z,12.20
2023-03-30T17:17:19.907Z,12.30
2023-03-30T17:19:47.018Z,12.20
2023-03-30T17:22:13.973Z,12.30
2023-03-30T17:24:44.933Z,12.30
2023-03-30T17:27:12.782Z,12.30
2023-03-30T17:29:40.471Z,12.30
2023-03-30T17:32:12.436Z,12.40
2023-03-30T17:34:40.022Z,12.40
2023-03-30T17:37:06.814Z,12.30
2023-03-30T17:39:38.168Z,12.40
2023-03-30T17:42:06.293Z,12.40
2023-03-30T17:44:37.645Z,12.40
2023-03-30T17:47:04.403Z,12.40
2023-03-30T17:49:36.662Z,12.40
2023-03-30T17:52:05.039Z,12.50
2023-03-30T17:54:33.617Z,12.50
2023-03-30T17:57:02.458Z,12.60
2023-03-30T18:05:00.492Z,12.50
2023-03-30T18:07:28.577Z,12.50
2023-03-30T18:10:00.778Z,12.50
2023-03-30T18:12:32.627Z,12.50
2023-03-30T18:15:09.414Z,12.30
2023-03-30T18:17:38.483Z,12.50
2023-03-30T18:20:11.892Z,12.40
2023-03-30T18:22:47.849Z,12.40
2023-03-30T18:25:31.520Z,12.40
2023-03-30T18:28:09.260Z,12.40
2023-03-30T18:30:38.805Z,12.40
2023-03-30T18:33:28.497Z,12.40
2023-03-30T18:36:03.320Z,12.50
2023-03-30T18:38:38.451Z,12.50
2023-03-30T18:41:09.111Z,12.40
2023-03-30T18:43:41.610Z,12.30
2023-03-30T18:51:36.131Z,12.20
2023-03-30T18:59:45.242Z,12.20
2023-03-30T19:05:01.231Z,12.10
2023-03-30T19:07:28.931Z,12.20
2023-03-30T19:09:58.451Z,12.20
2023-03-30T19:12:42.753Z,12.20
2023-03-30T19:18:21.482Z,12.10
2023-03-30T19:23:34.488Z,12.10
2023-03-30T19:28:50.257Z,12.10
2023-03-30T19:31:31.321Z,12.10
2023-03-30T19:34:05.973Z,11.90
2023-03-30T19:36:35.770Z,12.00
2023-03-30T19:41:47.598Z,11.90
2023-03-30T19:44:17.908Z,11.90
2023-03-30T19:46:51.176Z,11.90
2023-03-30T19:49:48.708Z,11.90
2023-03-30T19:52:28.134Z,11.80
2023-03-30T19:57:38.804Z,11.70
2023-03-30T20:00:18.987Z,11.70
2023-03-30T20:02:47.819Z,11.70
2023-03-30T20:05:17.617Z,11.70
2023-03-30T20:07:46.789Z,11.60
2023-03-30T20:10:14.903Z,11.60
2023-03-30T20:15:27.355Z,11.70
2023-03-30T20:17:59.532Z,11.60
2023-03-30T20:20:34.927Z,11.70
2023-03-30T20:23:16.754Z,11.60
2023-03-30T20:31:16.837Z,11.60
2023-03-30T20:33:45.035Z,11.60
2023-03-30T20:38:53.794Z,11.60
2023-03-30T20:41:22.406Z,11.60
2023-03-30T20:43:56.781Z,11.60
2023-03-30T20:46:35.585Z,11.60
2023-03-30T20:49:03.666Z,11.70
2023-03-30T20:51:31.217Z,11.70
2023-03-30T20:54:00.321Z,11.70
2023-03-30T20:56:30.399Z,11.70
2023-03-30T20:58:59.739Z,11.80
2023-03-30T21:01:37.023Z,11.80
2023-03-30T21:04:04.171Z,11.90
2023-03-30T21:06:32.291Z,12.00
2023-03-30T21:09:01.226Z,12.00
2023-03-30T21:14:09.934Z,12.10
2023-03-30T21:16:42.204Z,12.10
2023-03-30T21:19:09.268Z,12.10
2023-03-30T21:21:38.211Z,12.20
2023-03-30T21:24:05.897Z,12.20
2023-03-30T21:26:32.920Z,12.30
2023-03-30T21:28:59.709Z,12.30
2023-03-30T21:31:26.753Z,12.20
2023-03-30T21:33:54.133Z,12.20
2023-03-30T21:36:21.181Z,12.10
2023-03-30T21:38:47.991Z,12.00
2023-03-30T21:41:16.582Z,11.90
2023-03-30T21:43:44.385Z,11.90
2023-03-30T21:46:12.673Z,11.80
2023-03-30T21:48:41.142Z,11.80
2023-03-30T21:51:09.247Z,11.80
2023-03-30T21:53:41.200Z,11.70
2023-03-30T21:56:08.994Z,11.70
2023-03-30T21:58:36.006Z,11.60
2023-03-30T22:01:11.828Z,11.60
2023-03-30T22:03:40.857Z,11.50
2023-03-30T22:06:08.212Z,11.40
2023-03-30T22:08:38.848Z,11.40
2023-03-30T22:11:07.518Z,11.30
2023-03-30T22:13:38.757Z,11.20
2023-03-30T22:16:06.344Z,11.20
2023-03-30T22:18:34.900Z,11.10
2023-03-30T22:21:03.377Z,11.20
2023-03-30T22:23:31.214Z,11.10
2023-03-30T22:26:00.540Z,11.10
2023-03-30T22:28:27.273Z,11.00
2023-03-30T22:30:54.260Z,11.00
2023-03-30T22:33:20.972Z,10.90
2023-03-30T22:35:49.266Z,10.90
2023-03-30T22:38:16.671Z,10.90
2023-03-30T22:40:47.327Z,10.90
2023-03-30T22:43:14.109Z,10.80
2023-03-30T22:45:42.191Z,10.80
2023-03-30T22:48:10.505Z,10.80
2023-03-30T22:50:37.523Z,10.70
2023-03-30T22:53:05.688Z,10.70
2023-03-30T22:55:32.459Z,10.60
2023-03-30T22:57:59.525Z,10.60
2023-03-30T23:00:27.788Z,10.60
2023-03-30T23:02:54.762Z,10.50
2023-03-30T23:05:21.680Z,10.50
2023-03-30T23:07:48.881Z,10.50
2023-03-30T23:10:17.442Z,10.40
2023-03-30T23:12:44.460Z,10.40
2023-03-30T23:15:11.275Z,10.40
2023-03-30T23:17:39.047Z,10.30
2023-03-30T23:20:10.130Z,10.30
2023-03-30T23:22:38.218Z,10.20
2023-03-30T23:25:05.583Z,10.10
2023-03-30T23:27:32.451Z,10.10
2023-03-30T23:30:01.978Z,10.00
2023-03-30T23:32:28.658Z,10.00
2023-03-30T23:35:02.665Z,9.90
2023-03-30T23:37:33.010Z,9.90
2023-03-30T23:40:07.495Z,9.80
2023-03-30T23:42:43.583Z,9.80
2023-03-30T23:45:10.966Z,9.80
2023-03-30T23:47:40.752Z,9.80
2023-03-30T23:50:10.251Z,9.80
2023-03-30T23:52:37.936Z,9.80
2023-03-30T23:55:05.649Z,9.80
2023-03-30T23:57:33.555Z,9.80
